Time;durP1;ratioP1;P1;durP2;ratioP2;P2;SDS_P1;SDS_P2;PMS_P1;PMS_P2;Temp;Humidity;BMP_temperature;BMP_pressure;BME280_temperature;BME280_humidity;BME280_pressure;Samples;Min_cycle;Max_cycle;Signal;HPM_P1;HPM_P2
2021/09/11 00:00:45;;;;;;;22.17;20.17;;;21.20;99.90;;;;;;5073781;28;20480;-63
2021/09/11 00:03:13;;;;;;;20.50;18.53;;;21.10;99.90;;;;;;5066371;28;20463;-64
2021/09/11 00:05:40;;;;;;;20.17;18.37;;;21.20;99.90;;;;;;5073042;28;20815;-63
2021/09/11 00:08:07;;;;;;;19.73;17.93;;;21.20;99.90;;;;;;5073881;28;20807;-64
2021/09/11 00:10:36;;;;;;;22.00;20.10;;;21.20;99.90;;;;;;5073998;28;20474;-64
2021/09/11 00:13:03;;;;;;;22.37;19.80;;;21.20;99.90;;;;;;5064792;28;20550;-63
2021/09/11 00:15:32;;;;;;;20.00;18.20;;;21.10;99.90;;;;;;5070416;28;20480;-64
2021/09/11 00:17:59;;;;;;;20.13;18.50;;;21.20;99.90;;;;;;5073367;28;20467;-63
2021/09/11 00:20:28;;;;;;;20.20;18.60;;;21.10;99.90;;;;;;5073860;28;20470;-63
2021/09/11 00:22:55;;;;;;;20.77;18.97;;;21.10;99.90;;;;;;5073268;28;20474;-64
2021/09/11 00:25:22;;;;;;;19.80;18.10;;;21.10;99.90;;;;;;5073951;28;20469;-63
2021/09/11 00:27:49;;;;;;;19.70;18.03;;;21.10;99.90;;;;;;5073207;28;20466;-64
2021/09/11 00:30:16;;;;;;;19.47;17.97;;;21.10;99.90;;;;;;5073603;28;20470;-64
2021/09/11 00:32:44;;;;;;;18.47;17.00;;;21.10;99.90;;;;;;5073015;28;20478;-64
2021/09/11 00:35:12;;;;;;;20.03;18.40;;;21.10;99.90;;;;;;5073437;28;20541;-63
2021/09/11 00:37:40;;;;;;;18.47;16.97;;;21.10;99.90;;;;;;5069810;28;20546;-65
2021/09/11 00:40:09;;;;;;;18.13;16.60;;;21.10;99.90;;;;;;5060319;28;21235;-63
2021/09/11 00:42:36;;;;;;;18.53;17.03;;;21.10;99.90;;;;;;5053438;28;20795;-63
2021/09/11 00:45:03;;;;;;;17.60;16.30;;;21.10;99.90;;;;;;5052948;28;20801;-63
2021/09/11 00:47:30;;;;;;;19.60;17.90;;;21.10;99.90;;;;;;5053392;28;20466;-63
2021/09/11 00:49:57;;;;;;;20.60;18.77;;;21.10;99.90;;;;;;5057792;28;20478;-63
2021/09/11 00:52:24;;;;;;;17.20;15.70;;;21.10;99.90;;;;;;5064612;28;20471;-63
2021/09/11 00:54:52;;;;;;;18.10;16.60;;;21.00;99.90;;;;;;5052917;28;20463;-64
2021/09/11 00:57:20;;;;;;;18.60;17.20;;;21.00;99.90;;;;;;5053149;28;20470;-63
2021/09/11 00:59:47;;;;;;;20.30;18.60;;;21.00;99.90;;;;;;5052853;28;20467;-64
2021/09/11 01:02:14;;;;;;;20.30;18.60;;;21.00;99.90;;;;;;5071179;28;20955;-63
2021/09/11 01:04:41;;;;;;;19.57;17.87;;;21.00;99.90;;;;;;5065152;28;20459;-63
2021/09/11 01:07:08;;;;;;;19.80;18.10;;;21.00;99.90;;;;;;5063597;28;20489;-63
2021/09/11 01:09:35;;;;;;;20.07;18.30;;;21.00;99.90;;;;;;5053148;28;20869;-64
2021/09/11 01:12:04;;;;;;;18.93;17.33;;;21.00;99.90;;;;;;5052951;28;20494;-63
2021/09/11 01:14:30;;;;;;;18.43;16.80;;;21.00;99.90;;;;;;5064967;28;20463;-64
2021/09/11 01:16:57;;;;;;;19.90;18.20;;;21.00;99.90;;;;;;5052406;28;20965;-64
2021/09/11 01:19:24;;;;;;;20.73;19.03;;;21.00;99.90;;;;;;5052816;28;20467;-64
2021/09/11 01:21:51;;;;;;;21.40;19.60;;;21.00;99.90;;;;;;5052267;28;20991;-63
2021/09/11 01:24:19;;;;;;;19.70;18.00;;;21.00;99.90;;;;;;5052917;28;20801;-62
2021/09/11 01:26:50;;;;;;;20.23;18.63;;;21.00;99.90;;;;;;5052351;28;20474;-62
2021/09/11 01:29:17;;;;;;;19.53;17.93;;;21.00;99.90;;;;;;5052484;28;20940;-62
2021/09/11 01:31:44;;;;;;;19.70;17.97;;;21.00;99.90;;;;;;5052509;28;20953;-63
2021/09/11 01:34:11;;;;;;;18.47;17.07;;;20.90;99.90;;;;;;5061979;28;21236;-62
2021/09/11 01:36:38;;;;;;;19.30;17.70;;;21.00;99.90;;;;;;5061360;28;20476;-63
2021/09/11 01:39:05;;;;;;;19.23;17.67;;;20.90;99.90;;;;;;5061160;28;20480;-63
2021/09/11 01:41:33;;;;;;;20.93;19.23;;;20.90;99.90;;;;;;5054759;28;20471;-63
2021/09/11 01:44:00;;;;;;;19.33;17.83;;;20.90;99.90;;;;;;5052083;28;20829;-63
2021/09/11 01:46:26;;;;;;;18.50;16.97;;;20.90;99.90;;;;;;5052412;28;20481;-63
2021/09/11 01:48:53;;;;;;;19.33;17.83;;;20.90;99.90;;;;;;5051840;28;20573;-64
2021/09/11 01:51:20;;;;;;;18.27;16.67;;;20.90;99.90;;;;;;5068535;28;20468;-64
2021/09/11 01:53:47;;;;;;;18.33;16.93;;;20.90;99.90;;;;;;5052338;28;20470;-63
2021/09/11 01:56:14;;;;;;;19.07;17.43;;;20.90;99.90;;;;;;5052031;28;20459;-64
2021/09/11 01:58:42;;;;;;;18.90;17.40;;;20.90;99.90;;;;;;5052374;28;20475;-64
2021/09/11 02:01:09;;;;;;;19.40;17.80;;;20.90;99.90;;;;;;5051917;28;20497;-64
2021/09/11 02:03:35;;;;;;;20.90;19.20;;;20.90;99.90;;;;;;5052139;28;20966;-63
2021/09/11 02:06:02;;;;;;;21.10;19.30;;;20.90;99.90;;;;;;5061356;28;20465;-63
2021/09/11 02:08:29;;;;;;;21.23;19.33;;;20.80;99.90;;;;;;5072165;28;20800;-63
2021/09/11 02:10:56;;;;;;;20.07;18.57;;;20.80;99.90;;;;;;5071840;28;20563;-64
2021/09/11 02:13:23;;;;;;;18.23;16.80;;;20.80;99.90;;;;;;5072243;28;20469;-64
2021/09/11 02:15:51;;;;;;;19.70;17.90;;;20.80;99.90;;;;;;5072123;28;20952;-64
2021/09/11 02:18:18;;;;;;;18.03;16.60;;;20.80;99.90;;;;;;5072003;28;20468;-63
2021/09/11 02:20:45;;;;;;;17.87;16.53;;;20.80;99.90;;;;;;5072085;28;20476;-64
2021/09/11 02:23:12;;;;;;;19.07;17.50;;;20.80;99.90;;;;;;5071554;28;20493;-64
2021/09/11 02:25:39;;;;;;;18.17;16.60;;;20.80;99.90;;;;;;5072377;28;20467;-63
2021/09/11 02:28:06;;;;;;;20.13;18.53;;;20.80;99.90;;;;;;5071477;28;20470;-64
2021/09/11 02:30:33;;;;;;;20.47;18.77;;;20.80;99.90;;;;;;5066033;28;20473;-63
2021/09/11 02:33:01;;;;;;;20.93;19.03;;;20.80;99.90;;;;;;5052325;28;20473;-63
2021/09/11 02:35:28;;;;;;;20.43;18.77;;;20.80;99.90;;;;;;5049275;28;20474;-64
2021/09/11 02:37:55;;;;;;;21.83;19.93;;;20.80;99.90;;;;;;5049707;28;20455;-64
2021/09/11 02:40:22;;;;;;;19.47;17.70;;;20.80;99.90;;;;;;5052120;28;20479;-64
2021/09/11 02:42:49;;;;;;;19.23;17.83;;;20.80;99.90;;;;;;5051947;28;20473;-64
2021/09/11 02:45:15;;;;;;;19.57;17.97;;;20.80;99.90;;;;;;5051477;28;20471;-64
2021/09/11 02:47:42;;;;;;;19.17;17.40;;;20.80;99.90;;;;;;5050369;28;20467;-64
2021/09/11 02:50:11;;;;;;;18.40;16.90;;;20.80;99.90;;;;;;5049637;28;20467;-63
2021/09/11 02:52:38;;;;;;;19.00;17.60;;;20.80;99.90;;;;;;5050215;28;20489;-63
2021/09/11 02:55:06;;;;;;;17.73;16.33;;;20.80;99.90;;;;;;5049802;28;20505;-64
2021/09/11 02:57:33;;;;;;;18.07;16.67;;;20.70;99.90;;;;;;5050178;28;20459;-64
2021/09/11 02:59:59;;;;;;;18.07;16.63;;;20.70;99.90;;;;;;5050733;28;20475;-63
2021/09/11 03:02:26;;;;;;;17.80;16.40;;;20.70;99.90;;;;;;5052030;28;20800;-63
2021/09/11 03:04:53;;;;;;;18.67;17.07;;;20.70;99.90;;;;;;5054938;28;20991;-63
2021/09/11 03:07:21;;;;;;;18.93;17.40;;;20.70;99.90;;;;;;5054934;28;20459;-64
2021/09/11 03:09:48;;;;;;;19.30;17.80;;;20.70;99.90;;;;;;5055118;28;20471;-64
2021/09/11 03:12:15;;;;;;;19.13;17.63;;;20.70;99.90;;;;;;5054620;28;20463;-64
2021/09/11 03:14:42;;;;;;;19.30;17.70;;;20.70;99.90;;;;;;5055388;28;20462;-64
2021/09/11 03:17:08;;;;;;;18.43;16.93;;;20.70;99.90;;;;;;5054704;28;20481;-64
2021/09/11 03:19:35;;;;;;;17.90;16.50;;;20.70;99.90;;;;;;5055208;28;20473;-63
2021/09/11 03:22:02;;;;;;;19.37;17.83;;;20.70;99.90;;;;;;5054632;28;20459;-63
2021/09/11 03:24:30;;;;;;;19.10;17.67;;;20.70;99.90;;;;;;5055085;28;20474;-63
2021/09/11 03:26:57;;;;;;;19.50;18.00;;;20.70;99.90;;;;;;5054930;28;20471;-63
2021/09/11 03:29:24;;;;;;;18.93;17.37;;;20.70;99.90;;;;;;5054514;28;20466;-63
2021/09/11 03:31:51;;;;;;;19.33;17.67;;;20.60;99.90;;;;;;5054721;28;20481;-63
2021/09/11 03:34:18;;;;;;;19.30;17.50;;;20.70;99.90;;;;;;5054273;28;20987;-63
2021/09/11 03:36:44;;;;;;;18.60;16.90;;;20.60;99.90;;;;;;5054707;28;20463;-63
2021/09/11 03:39:11;;;;;;;18.83;17.43;;;20.60;99.90;;;;;;5054305;28;20802;-63
2021/09/11 03:41:39;;;;;;;17.60;16.10;;;20.60;99.90;;;;;;5054649;28;20455;-63
2021/09/11 03:44:07;;;;;;;19.27;17.70;;;20.60;99.90;;;;;;5054321;28;20464;-63
2021/09/11 03:46:33;;;;;;;18.63;17.13;;;20.60;99.90;;;;;;5054691;28;20820;-63
2021/09/11 03:49:00;;;;;;;20.37;18.67;;;20.60;99.90;;;;;;5054457;28;20471;-63
2021/09/11 03:51:29;;;;;;;18.70;17.20;;;20.60;99.90;;;;;;5054367;28;21067;-63
2021/09/11 03:53:56;;;;;;;20.83;19.13;;;20.60;99.90;;;;;;5054372;28;20814;-64
2021/09/11 03:56:26;;;;;;;19.67;17.73;;;20.60;99.90;;;;;;5054065;28;20941;-63
2021/09/11 03:58:54;;;;;;;19.87;18.27;;;20.60;99.90;;;;;;5054361;28;20471;-63
2021/09/11 04:01:21;;;;;;;19.30;17.60;;;20.60;99.90;;;;;;5053852;28;20467;-63
2021/09/11 04:03:48;;;;;;;18.63;17.03;;;20.60;99.90;;;;;;5054561;28;20463;-63
2021/09/11 04:06:14;;;;;;;18.77;17.23;;;20.60;99.90;;;;;;5053641;28;20475;-63
2021/09/11 04:08:41;;;;;;;17.53;16.17;;;20.50;99.90;;;;;;5054121;28;20469;-63
2021/09/11 04:11:08;;;;;;;18.67;16.97;;;20.60;99.90;;;;;;5053842;28;20478;-63
2021/09/11 04:13:35;;;;;;;18.37;16.93;;;20.50;99.90;;;;;;5054192;28;20459;-63
2021/09/11 04:16:04;;;;;;;19.30;17.70;;;20.60;99.90;;;;;;5053917;28;20463;-62
2021/09/11 04:18:31;;;;;;;17.50;16.00;;;20.50;99.90;;;;;;5053691;28;20463;-63
2021/09/11 04:20:57;;;;;;;18.83;17.30;;;20.50;99.90;;;;;;5054009;28;20473;-63
2021/09/11 04:23:24;;;;;;;20.50;18.67;;;20.50;99.90;;;;;;5053460;28;20490;-63
2021/09/11 04:25:51;;;;;;;17.27;15.80;;;20.50;99.90;;;;;;5054031;28;20635;-64
2021/09/11 04:28:18;;;;;;;19.57;17.97;;;20.50;99.90;;;;;;5053188;28;20483;-64
2021/09/11 04:30:45;;;;;;;19.97;18.17;;;20.50;99.90;;;;;;5053920;28;20455;-63
2021/09/11 04:33:13;;;;;;;20.53;18.63;;;20.50;99.90;;;;;;5053215;28;20464;-64
2021/09/11 04:35:40;;;;;;;19.33;17.63;;;20.50;99.90;;;;;;5053516;28;20459;-63
2021/09/11 04:38:07;;;;;;;21.67;19.80;;;20.50;99.90;;;;;;5053824;28;20507;-64
2021/09/11 04:40:34;;;;;;;18.87;17.00;;;20.50;99.90;;;;;;5053433;28;21159;-63
2021/09/11 04:43:03;;;;;;;19.30;17.63;;;20.50;99.90;;;;;;5053498;28;21014;-63
2021/09/11 04:45:30;;;;;;;19.17;17.57;;;20.50;99.90;;;;;;5053059;28;20505;-63
2021/09/11 04:47:57;;;;;;;20.37;18.77;;;20.60;99.90;;;;;;5053483;28;20467;-63
2021/09/11 04:50:25;;;;;;;19.20;17.50;;;20.60;99.90;;;;;;5052864;28;20795;-63
2021/09/11 04:52:52;;;;;;;19.60;17.80;;;20.60;99.90;;;;;;5053465;28;20509;-63
2021/09/11 04:55:19;;;;;;;19.30;17.70;;;20.60;99.90;;;;;;5052792;28;20828;-63
2021/09/11 04:57:46;;;;;;;18.47;16.80;;;20.60;99.90;;;;;;5053313;28;20463;-63
2021/09/11 05:00:14;;;;;;;18.83;17.23;;;20.60;99.90;;;;;;5052814;28;20467;-64
2021/09/11 05:02:41;;;;;;;19.30;17.70;;;20.70;99.90;;;;;;5053234;28;20463;-63
2021/09/11 05:05:09;;;;;;;18.53;17.03;;;20.70;99.90;;;;;;5053120;28;20973;-63
2021/09/11 05:07:37;;;;;;;18.37;16.87;;;20.70;99.90;;;;;;5052699;28;20971;-64
2021/09/11 05:10:05;;;;;;;20.83;18.97;;;20.70;99.90;;;;;;5052902;28;20881;-64
2021/09/11 05:12:32;;;;;;;17.73;16.30;;;20.70;99.90;;;;;;5052567;28;20471;-63
2021/09/11 05:14:59;;;;;;;18.93;17.33;;;20.70;99.90;;;;;;5053180;28;20463;-63
2021/09/11 05:17:26;;;;;;;19.70;18.00;;;20.70;99.90;;;;;;5052490;28;20470;-63
2021/09/11 05:19:52;;;;;;;18.97;17.37;;;20.80;99.90;;;;;;5052837;28;20538;-64
2021/09/11 05:22:19;;;;;;;18.43;16.93;;;20.80;99.90;;;;;;5052271;28;20471;-64
2021/09/11 05:24:47;;;;;;;20.70;18.80;;;20.80;99.90;;;;;;5053002;28;20816;-64
2021/09/11 05:27:14;;;;;;;19.77;17.97;;;20.90;99.90;;;;;;5051702;28;20467;-64
2021/09/11 05:29:41;;;;;;;18.80;17.30;;;20.90;99.90;;;;;;5052697;28;20797;-63
2021/09/11 05:32:08;;;;;;;20.37;18.30;;;20.90;99.90;;;;;;5052603;28;20467;-63
2021/09/11 05:34:35;;;;;;;19.93;18.20;;;21.00;99.90;;;;;;5052293;28;20459;-63
2021/09/11 05:37:02;;;;;;;19.40;17.70;;;21.00;99.90;;;;;;5052534;28;20966;-63
2021/09/11 05:39:28;;;;;;;22.00;20.10;;;21.00;99.90;;;;;;5052113;28;20464;-63
2021/09/11 05:41:57;;;;;;;20.60;18.80;;;21.00;99.90;;;;;;5052730;28;20485;-63
2021/09/11 05:44:24;;;;;;;20.60;18.63;;;21.00;99.90;;;;;;5052120;28;20493;-63
2021/09/11 05:46:50;;;;;;;21.63;19.63;;;21.10;99.90;;;;;;5052634;28;20477;-63
2021/09/11 05:49:17;;;;;;;16.90;15.60;;;21.10;99.90;;;;;;5052069;28;20802;-63
2021/09/11 05:51:44;;;;;;;18.10;16.57;;;21.10;99.90;;;;;;5052483;28;20470;-63
2021/09/11 05:54:11;;;;;;;20.33;18.63;;;21.10;99.90;;;;;;5052374;28;20477;-63
2021/09/11 05:56:38;;;;;;;18.73;17.23;;;21.20;99.90;;;;;;5052156;28;20466;-63
2021/09/11 05:59:06;;;;;;;17.83;16.03;;;21.20;99.90;;;;;;5052368;28;20475;-63
2021/09/11 06:01:33;;;;;;;16.83;15.30;;;21.20;99.90;;;;;;5051943;28;20477;-63
2021/09/11 06:04:00;;;;;;;17.53;16.03;;;21.20;99.90;;;;;;5052557;28;20786;-64
2021/09/11 06:06:27;;;;;;;20.50;18.57;;;21.20;99.90;;;;;;5051726;28;20471;-64
2021/09/11 06:08:54;;;;;;;19.70;17.90;;;21.30;99.90;;;;;;5052213;28;20467;-63
2021/09/11 06:11:21;;;;;;;19.00;17.40;;;21.30;99.90;;;;;;5051948;28;20467;-63
2021/09/11 06:13:48;;;;;;;17.07;15.57;;;21.30;99.90;;;;;;5052321;28;20983;-64
2021/09/11 06:16:16;;;;;;;17.53;16.03;;;21.30;99.90;;;;;;5052297;28;20478;-64
2021/09/11 06:18:43;;;;;;;17.47;15.97;;;21.30;99.90;;;;;;5052145;28;21264;-63
2021/09/11 06:21:10;;;;;;;18.20;16.60;;;21.30;99.90;;;;;;5052129;28;20471;-63
2021/09/11 06:23:37;;;;;;;18.17;16.60;;;21.30;99.90;;;;;;5051815;28;20474;-64
2021/09/11 06:26:03;;;;;;;17.77;16.27;;;21.30;99.90;;;;;;5052302;28;20801;-62
2021/09/11 06:28:30;;;;;;;19.67;17.97;;;21.30;99.90;;;;;;5051484;28;20467;-63
2021/09/11 06:30:57;;;;;;;19.60;17.90;;;21.30;99.90;;;;;;5052439;28;20465;-63
2021/09/11 06:33:25;;;;;;;17.80;16.13;;;21.30;99.90;;;;;;5051450;28;20820;-64
2021/09/11 06:35:52;;;;;;;18.40;16.70;;;21.30;99.90;;;;;;5051985;28;20462;-62
2021/09/11 06:38:19;;;;;;;15.73;14.50;;;21.30;99.90;;;;;;5054553;28;20475;-62
2021/09/11 06:40:46;;;;;;;16.23;14.93;;;21.30;99.90;;;;;;5055655;28;20467;-62
2021/09/11 06:43:12;;;;;;;18.30;16.53;;;21.40;99.90;;;;;;5055702;28;20467;-62
2021/09/11 06:45:39;;;;;;;17.70;15.90;;;21.40;99.90;;;;;;5055428;28;20467;-62
2021/09/11 06:48:07;;;;;;;16.43;14.93;;;21.40;99.90;;;;;;5055717;28;20467;-61
2021/09/11 06:50:35;;;;;;;16.53;15.00;;;21.40;99.90;;;;;;5054968;28;20829;-62
2021/09/11 06:53:02;;;;;;;16.33;15.10;;;21.50;99.90;;;;;;5055788;28;20831;-63
2021/09/11 06:55:29;;;;;;;17.20;15.77;;;21.50;99.90;;;;;;5055033;28;20473;-62
2021/09/11 06:57:55;;;;;;;19.13;17.63;;;21.60;99.90;;;;;;5055622;28;20462;-62
2021/09/11 07:00:22;;;;;;;18.50;16.57;;;21.70;99.90;;;;;;5055143;28;20478;-63
2021/09/11 07:02:49;;;;;;;18.27;16.57;;;21.70;99.90;;;;;;5055477;28;20482;-63
2021/09/11 07:05:18;;;;;;;18.53;17.03;;;21.80;99.90;;;;;;5055358;28;20961;-63
2021/09/11 07:07:46;;;;;;;18.40;16.90;;;21.90;99.90;;;;;;5054875;28;20542;-63
2021/09/11 07:10:13;;;;;;;17.60;16.03;;;21.90;99.90;;;;;;5055213;28;20468;-63
2021/09/11 07:12:39;;;;;;;17.70;15.90;;;22.00;99.90;;;;;;5054934;28;20481;-63
2021/09/11 07:15:07;;;;;;;16.83;15.43;;;22.00;99.90;;;;;;5055179;28;20795;-63
2021/09/11 07:17:34;;;;;;;17.40;15.80;;;22.00;99.90;;;;;;5054714;28;21041;-63
2021/09/11 07:20:01;;;;;;;16.73;15.33;;;22.10;99.90;;;;;;5055157;28;20471;-62
2021/09/11 07:22:27;;;;;;;16.60;15.10;;;22.10;99.90;;;;;;5054534;28;20554;-63
2021/09/11 07:24:55;;;;;;;18.10;16.27;;;22.10;99.90;;;;;;5055077;28;20463;-63
2021/09/11 07:27:22;;;;;;;16.47;14.87;;;22.10;99.90;;;;;;5055055;28;20812;-63
2021/09/11 07:29:49;;;;;;;15.57;14.20;;;22.20;99.90;;;;;;5054532;28;20486;-63
2021/09/11 07:32:16;;;;;;;18.43;16.77;;;22.20;99.90;;;;;;5054488;28;20546;-63
2021/09/11 07:34:43;;;;;;;17.13;15.63;;;22.30;99.90;;;;;;5054346;28;20960;-63
2021/09/11 07:37:10;;;;;;;19.93;18.13;;;22.30;99.90;;;;;;5054391;28;20477;-63
2021/09/11 07:39:39;;;;;;;17.60;15.90;;;22.40;99.90;;;;;;5054208;28;20467;-63
2021/09/11 07:42:07;;;;;;;17.40;16.00;;;22.40;99.90;;;;;;5054954;28;20801;-63
2021/09/11 07:44:34;;;;;;;17.37;15.40;;;22.50;99.90;;;;;;5054257;28;20471;-63
2021/09/11 07:47:01;;;;;;;19.47;17.67;;;22.50;99.90;;;;;;5054804;28;20459;-64
2021/09/11 07:49:28;;;;;;;16.27;14.77;;;22.60;99.90;;;;;;5053427;28;20947;-63
2021/09/11 07:51:55;;;;;;;14.90;13.50;;;22.60;99.90;;;;;;5054584;28;20467;-63
2021/09/11 07:54:22;;;;;;;15.27;14.00;;;22.60;99.90;;;;;;5054552;28;20474;-63
2021/09/11 07:56:48;;;;;;;18.53;16.87;;;22.60;99.90;;;;;;5054069;28;20455;-64
2021/09/11 07:59:17;;;;;;;16.80;15.50;;;22.60;99.90;;;;;;5054397;28;20476;-63
2021/09/11 08:01:43;;;;;;;20.17;18.57;;;22.60;99.90;;;;;;5054001;28;20470;-63
2021/09/11 08:04:10;;;;;;;19.83;18.00;;;22.50;99.90;;;;;;5054305;28;20468;-63
2021/09/11 08:06:37;;;;;;;20.53;18.70;;;22.50;99.90;;;;;;5053757;28;20467;-63
2021/09/11 08:09:04;;;;;;;19.97;18.27;;;22.50;99.90;;;;;;5054078;28;20485;-63
2021/09/11 08:11:31;;;;;;;19.60;18.00;;;22.40;99.90;;;;;;5053838;28;20482;-63
2021/09/11 08:13:58;;;;;;;18.13;16.67;;;22.40;99.90;;;;;;5054148;28;20804;-64
2021/09/11 08:16:26;;;;;;;21.80;19.83;;;22.40;99.90;;;;;;5054250;28;20478;-63
2021/09/11 08:18:53;;;;;;;21.13;19.33;;;22.40;99.90;;;;;;5053698;28;20487;-64
2021/09/11 08:21:19;;;;;;;23.40;21.40;;;22.40;99.90;;;;;;5053843;28;20475;-63
2021/09/11 08:23:46;;;;;;;23.60;21.60;;;22.40;99.90;;;;;;5053570;28;20463;-64
2021/09/11 08:26:13;;;;;;;21.77;19.77;;;22.40;99.90;;;;;;5053888;28;20470;-63
2021/09/11 08:28:40;;;;;;;21.77;19.83;;;22.40;99.90;;;;;;5053415;28;20475;-63
2021/09/11 08:31:07;;;;;;;19.70;18.10;;;22.40;99.90;;;;;;5053507;28;20476;-64
2021/09/11 08:33:35;;;;;;;17.77;16.27;;;22.50;99.90;;;;;;5053358;28;20979;-63
2021/09/11 08:36:02;;;;;;;17.90;16.40;;;22.50;99.90;;;;;;5053861;28;20509;-64
2021/09/11 08:38:34;;;;;;;18.20;16.53;;;22.60;99.90;;;;;;5053634;28;20471;-64
2021/09/11 08:41:03;;;;;;;17.93;16.43;;;22.60;99.90;;;;;;5053493;28;20461;-63
2021/09/11 08:43:30;;;;;;;21.43;19.47;;;22.60;99.90;;;;;;5053582;28;20459;-64
2021/09/11 08:45:57;;;;;;;20.63;18.73;;;22.70;99.90;;;;;;5053235;28;20467;-64
2021/09/11 08:48:24;;;;;;;18.03;16.50;;;22.70;99.90;;;;;;5053436;28;20471;-63
2021/09/11 08:50:53;;;;;;;16.37;15.00;;;22.70;99.90;;;;;;5052852;28;20550;-64
2021/09/11 08:53:20;;;;;;;17.00;15.40;;;22.70;99.90;;;;;;5053491;28;21035;-64
2021/09/11 08:55:48;;;;;;;18.00;16.30;;;22.80;99.90;;;;;;5052951;28;20942;-63
2021/09/11 08:58:18;;;;;;;17.33;15.93;;;22.80;99.90;;;;;;5053364;28;20463;-63
2021/09/11 09:00:47;;;;;;;16.10;14.80;;;22.80;99.90;;;;;;5052077;28;20478;-64
2021/09/11 09:03:35;;;;;;;14.97;13.60;;;22.80;99.90;;;;;;5053070;28;20471;-63
2021/09/11 09:06:23;;;;;;;16.53;15.23;;;22.80;99.90;;;;;;5052691;28;20459;-63
2021/09/11 09:08:52;;;;;;;13.57;12.40;;;22.80;99.90;;;;;;5052581;28;20486;-63
2021/09/11 09:11:23;;;;;;;16.47;15.17;;;22.80;99.90;;;;;;5052964;28;21007;-63
2021/09/11 09:14:01;;;;;;;16.20;14.80;;;22.80;99.90;;;;;;5052807;28;20794;-64
2021/09/11 09:16:30;;;;;;;15.93;14.67;;;22.80;99.90;;;;;;5053101;28;20474;-64
2021/09/11 09:18:57;;;;;;;15.67;14.47;;;22.90;99.90;;;;;;5052445;28;20808;-63
2021/09/11 09:21:28;;;;;;;11.70;10.70;;;22.90;99.90;;;;;;5053015;28;20558;-63
2021/09/11 09:23:57;;;;;;;13.50;12.50;;;22.90;99.90;;;;;;5052556;28;20456;-63
2021/09/11 09:26:25;;;;;;;11.70;10.60;;;22.90;99.90;;;;;;5052873;28;20860;-64
2021/09/11 09:29:09;;;;;;;10.93;10.03;;;23.00;99.90;;;;;;5052323;28;20466;-64
2021/09/11 09:31:37;;;;;;;10.77;9.80;;;23.00;99.90;;;;;;5052528;28;20481;-64
2021/09/11 09:34:05;;;;;;;14.10;13.00;;;23.10;99.90;;;;;;5052701;28;21234;-63
2021/09/11 09:36:38;;;;;;;13.83;12.73;;;23.10;99.90;;;;;;5052566;28;20464;-63
2021/09/11 09:39:08;;;;;;;14.67;13.47;;;23.10;99.90;;;;;;5053331;28;20459;-64
2021/09/11 09:41:47;;;;;;;14.10;13.00;;;23.20;99.90;;;;;;5072733;28;20466;-63
2021/09/11 09:44:15;;;;;;;14.73;13.40;;;23.30;99.90;;;;;;5072289;28;21311;-63
2021/09/11 09:46:43;;;;;;;14.53;13.33;;;23.30;99.90;;;;;;5072665;28;20488;-63
2021/09/11 09:49:11;;;;;;;13.83;12.83;;;23.30;99.90;;;;;;5072040;28;20466;-63
2021/09/11 09:51:39;;;;;;;13.40;12.20;;;23.40;99.90;;;;;;5072548;28;20471;-63
2021/09/11 09:54:06;;;;;;;13.47;12.47;;;23.30;99.90;;;;;;5072114;28;20466;-64
2021/09/11 09:56:33;;;;;;;12.93;11.87;;;23.40;99.90;;;;;;5072460;28;20462;-63
2021/09/11 09:59:00;;;;;;;13.53;12.43;;;23.40;99.90;;;;;;5072048;28;20470;-63
2021/09/11 10:01:28;;;;;;;14.73;13.53;;;23.40;99.90;;;;;;5072340;28;20457;-63
2021/09/11 10:03:55;;;;;;;13.87;12.70;;;23.40;99.90;;;;;;5072137;28;20466;-63
2021/09/11 10:06:26;;;;;;;14.27;13.17;;;23.40;99.90;;;;;;5072367;28;20468;-63
2021/09/11 10:08:58;;;;;;;17.73;16.23;;;23.40;99.90;;;;;;5071839;28;20545;-63
2021/09/11 10:11:34;;;;;;;17.67;16.07;;;23.50;99.90;;;;;;5071755;28;20490;-63
2021/09/11 10:14:03;;;;;;;17.10;15.60;;;23.50;99.90;;;;;;5075787;28;20482;-64
2021/09/11 10:16:31;;;;;;;15.70;14.30;;;23.50;99.90;;;;;;5076449;28;20815;-64
2021/09/11 10:18:58;;;;;;;15.80;14.50;;;23.50;99.90;;;;;;5065820;28;20467;-64
2021/09/11 10:21:37;;;;;;;14.63;13.53;;;23.50;99.90;;;;;;5056328;28;20455;-64
2021/09/11 10:24:28;;;;;;;18.73;17.03;;;23.50;99.90;;;;;;5055946;28;20463;-63
2021/09/11 10:26:58;;;;;;;21.30;19.50;;;23.50;99.90;;;;;;5074295;28;20462;-63
2021/09/11 10:29:51;;;;;;;20.30;18.40;;;23.50;99.90;;;;;;5064631;28;20471;-62
2021/09/11 10:32:26;;;;;;;23.70;21.50;;;23.50;99.90;;;;;;5063694;28;21584;-63
2021/09/11 10:35:00;;;;;;;19.97;18.47;;;23.50;99.90;;;;;;5072118;28;20959;-63
2021/09/11 10:37:38;;;;;;;18.43;17.00;;;23.50;99.90;;;;;;5065790;28;20454;-63
2021/09/11 10:40:22;;;;;;;19.43;17.90;;;23.50;99.90;;;;;;5061796;28;20470;-63
2021/09/11 10:43:20;;;;;;;20.70;19.10;;;23.50;99.90;;;;;;5072186;28;20472;-63
2021/09/11 10:45:56;;;;;;;21.60;19.60;;;23.50;99.90;;;;;;4986509;28;20870;-63
2021/09/11 10:48:50;;;;;;;22.23;20.40;;;23.60;99.90;;;;;;5056027;28;20501;-63
2021/09/11 10:51:33;;;;;;;20.50;18.80;;;23.70;99.90;;;;;;5055182;28;20463;-63
2021/09/11 10:54:08;;;;;;;18.77;17.17;;;23.70;99.90;;;;;;5056755;28;20478;-63
2021/09/11 10:56:38;;;;;;;18.67;17.07;;;23.80;99.90;;;;;;5064449;28;20477;-63
2021/09/11 10:59:28;;;;;;;105.17;95.03;;;23.80;99.90;;;;;;5063741;28;20480;-63
2021/09/11 11:01:57;;;;;;;125.47;112.97;;;23.70;99.90;;;;;;5065089;28;20476;-62
2021/09/11 11:04:24;;;;;;;149.17;134.57;;;23.60;99.90;;;;;;5061454;28;20463;-63
2021/09/11 11:06:52;;;;;;;243.23;219.63;;;23.60;99.90;;;;;;5054147;28;20467;-63
2021/09/11 11:09:19;;;;;;;200.50;180.40;;;23.60;99.90;;;;;;5067104;28;21035;-63
2021/09/11 11:11:49;;;;;;;175.73;158.40;;;23.60;99.90;;;;;;5063867;28;20468;-63
2021/09/11 11:14:16;;;;;;;113.37;102.47;;;23.60;99.90;;;;;;5057605;28;20463;-63
2021/09/11 11:16:49;;;;;;;77.50;70.07;;;23.60;99.90;;;;;;5057390;28;20471;-63
2021/09/11 11:19:24;;;;;;;46.60;42.40;;;23.60;99.90;;;;;;5064561;28;20489;-63
2021/09/11 11:22:00;;;;;;;30.60;27.90;;;23.60;99.90;;;;;;5068127;28;21141;-64
2021/09/11 11:24:29;;;;;;;36.50;33.00;;;23.60;99.90;;;;;;5070889;28;21176;-64
2021/09/11 11:26:59;;;;;;;41.27;37.57;;;23.70;99.90;;;;;;5057239;28;20466;-63
2021/09/11 11:29:27;;;;;;;49.37;44.87;;;23.70;99.90;;;;;;5060732;28;20807;-63
2021/09/11 11:31:54;;;;;;;62.10;56.10;;;23.80;99.90;;;;;;5062441;28;20578;-63
2021/09/11 11:34:21;;;;;;;50.47;45.87;;;23.70;99.90;;;;;;5067675;28;20505;-63
2021/09/11 11:36:49;;;;;;;48.70;44.17;;;23.80;99.90;;;;;;5054623;28;20975;-63
2021/09/11 11:39:21;;;;;;;33.67;30.60;;;23.80;99.90;;;;;;5067682;28;20471;-63
2021/09/11 11:41:55;;;;;;;28.23;25.67;;;23.90;99.90;;;;;;5067980;28;20466;-63
2021/09/11 11:44:24;;;;;;;19.37;17.67;;;23.90;99.90;;;;;;5061805;28;20470;-63
2021/09/11 11:46:54;;;;;;;15.80;14.50;;;24.00;99.90;;;;;;5059761;28;20463;-63
2021/09/11 11:49:22;;;;;;;15.63;14.33;;;24.00;99.90;;;;;;5054023;28;20477;-63
2021/09/11 11:51:55;;;;;;;22.83;20.80;;;24.00;99.90;;;;;;5053671;28;20472;-63
2021/09/11 11:54:22;;;;;;;24.87;22.53;;;24.00;99.90;;;;;;5052698;28;20911;-63
2021/09/11 11:56:50;;;;;;;27.00;24.50;;;24.00;99.90;;;;;;5054565;28;20845;-63
2021/09/11 11:59:25;;;;;;;19.50;17.73;;;24.00;99.90;;;;;;5053889;28;20471;-64
2021/09/11 12:01:52;;;;;;;19.63;17.83;;;24.00;99.90;;;;;;5054278;28;20961;-63
2021/09/11 12:04:20;;;;;;;18.30;16.80;;;24.00;99.90;;;;;;5053652;28;20473;-63
2021/09/11 12:06:49;;;;;;;19.17;17.47;;;24.00;99.90;;;;;;5054209;28;20471;-63
2021/09/11 12:09:17;;;;;;;30.00;27.10;;;24.00;99.90;;;;;;5053576;28;20463;-63
2021/09/11 12:11:46;;;;;;;25.87;23.50;;;24.10;99.90;;;;;;5054157;28;20482;-63
2021/09/11 12:14:16;;;;;;;18.30;16.70;;;24.10;99.90;;;;;;5053701;28;20521;-63
2021/09/11 12:16:45;;;;;;;27.47;25.00;;;24.10;99.90;;;;;;5053990;28;20459;-63
2021/09/11 12:19:14;;;;;;;39.50;35.57;;;24.10;99.90;;;;;;5053422;28;20483;-63
2021/09/11 12:21:42;;;;;;;30.23;27.33;;;24.10;99.90;;;;;;5053946;28;20534;-63
2021/09/11 12:24:19;;;;;;;35.60;32.17;;;24.20;99.90;;;;;;5066571;28;20473;-63
2021/09/11 12:26:46;;;;;;;23.20;21.10;;;24.20;99.90;;;;;;5065384;28;20470;-63
2021/09/11 12:29:16;;;;;;;36.30;33.00;;;24.20;99.90;;;;;;5053647;28;20479;-63
2021/09/11 12:31:54;;;;;;;23.17;20.80;;;24.20;99.90;;;;;;5066820;28;20470;-63